Time;durP1;ratioP1;P1;durP2;ratioP2;P2;SDS_P1;SDS_P2;PMS_P1;PMS_P2;Temp;Humidity;BMP_temperature;BMP_pressure;BME280_temperature;BME280_humidity;BME280_pressure;Samples;Min_cycle;Max_cycle;Signal;HPM_P1;HPM_P2
2023/04/17 00:02:24;;;;;;;8.40;2.83;;;;;;;16.13;71.99;98382.34;6125011;23;20240;-91
2023/04/17 00:04:51;;;;;;;12.67;3.53;;;;;;;16.11;72.47;98379.03;6126394;23;20194;-91
2023/04/17 00:07:21;;;;;;;7.10;2.77;;;;;;;16.18;72.26;98380.16;6124842;23;20162;-92
2023/04/17 00:09:47;;;;;;;5.90;3.07;;;;;;;16.21;72.38;98374.59;6126182;23;20183;-91
2023/04/17 00:12:14;;;;;;;13.50;4.03;;;;;;;16.23;72.42;98380.56;6125317;23;20159;-92
2023/04/17 00:14:40;;;;;;;10.80;3.73;;;;;;;16.22;72.19;98380.72;6125433;23;20193;-91
2023/04/17 00:17:06;;;;;;;10.33;3.50;;;;;;;16.21;72.13;98377.25;6125328;23;20152;-92
2023/04/17 00:19:34;;;;;;;23.00;6.83;;;;;;;16.26;71.95;98380.31;6126240;23;20147;-91
2023/04/17 00:21:59;;;;;;;20.90;6.10;;;;;;;16.31;71.89;98371.97;6125101;23;20177;-93
2023/04/17 00:24:25;;;;;;;9.43;3.67;;;;;;;16.39;71.34;98377.41;6125320;23;20230;-92
2023/04/17 00:26:51;;;;;;;7.10;2.57;;;;;;;16.46;70.57;98373.25;6125462;23;20155;-92
2023/04/17 00:29:17;;;;;;;7.73;2.93;;;;;;;16.44;70.67;98364.63;6125958;23;20175;-92
2023/04/17 00:31:42;;;;;;;8.67;3.07;;;;;;;16.40;70.83;98373.81;6125467;23;20485;-92
2023/04/17 00:34:07;;;;;;;6.33;3.27;;;;;;;16.40;71.04;98369.34;6125068;23;20169;-92
2023/04/17 00:36:37;;;;;;;8.43;3.00;;;;;;;16.39;71.36;98374.78;6125046;23;20156;-92
2023/04/17 00:39:03;;;;;;;7.00;3.07;;;;;;;16.39;71.61;98372.97;6126464;23;20202;-92
2023/04/17 00:41:30;;;;;;;6.90;2.70;;;;;;;16.43;71.19;98368.25;6124874;23;20167;-92
2023/04/17 00:43:55;;;;;;;7.83;3.30;;;;;;;16.43;71.37;98366.44;6125418;23;20159;-92
2023/04/17 00:46:33;;;;;;;6.47;3.20;;;;;;;16.43;71.14;98360.31;6125877;23;20650;-92
2023/04/17 00:49:00;;;;;;;7.67;2.90;;;;;;;16.43;70.91;98365.63;6125703;23;20189;-92
2023/04/17 00:51:26;;;;;;;6.90;2.77;;;;;;;16.44;71.08;98362.81;6100515;23;20271;-92
2023/04/17 00:53:52;;;;;;;6.57;2.83;;;;;;;16.36;71.00;98362.66;6100931;23;20552;-93
2023/04/17 00:56:20;;;;;;;4.97;2.63;;;;;;;16.25;71.49;98360.13;6126339;23;20237;-93
2023/04/17 00:58:49;;;;;;;7.40;2.87;;;;;;;16.11;72.52;98364.97;6126185;23;20147;-93
2023/04/17 01:01:16;;;;;;;7.13;2.80;;;;;;;16.18;72.55;98359.00;6100963;23;20166;-93
2023/04/17 01:03:45;;;;;;;6.57;2.77;;;;;;;16.23;72.18;98359.44;6101076;23;20182;-92
2023/04/17 01:06:12;;;;;;;5.73;2.80;;;;;;;16.28;71.81;98361.66;6100821;23;20290;-92
2023/04/17 01:08:41;;;;;;;8.73;3.47;;;;;;;16.30;71.87;98365.84;6100273;23;20193;-92
2023/04/17 01:11:11;;;;;;;11.07;3.00;;;;;;;16.32;71.96;98361.28;6076932;23;20171;-92
2023/04/17 01:13:50;;;;;;;7.50;3.07;;;;;;;16.37;72.25;98363.50;6126595;23;20177;-92
2023/04/17 01:16:17;;;;;;;13.13;3.47;;;;;;;16.41;72.30;98359.59;6126159;23;20197;-92
2023/04/17 01:18:43;;;;;;;7.27;2.77;;;;;;;16.40;71.97;98350.00;6100485;23;20241;-92
2023/04/17 01:21:09;;;;;;;6.20;2.80;;;;;;;16.39;71.79;98364.19;6100703;23;20677;-92
2023/04/17 01:23:44;;;;;;;5.17;2.97;;;;;;;16.40;71.64;98371.97;6099420;23;20182;-91
2023/04/17 01:26:21;;;;;;;6.00;2.97;;;;;;;16.31;71.61;98396.63;6098179;23;20550;-92
2023/04/17 01:28:54;;;;;;;6.50;3.03;;;;;;;16.07;72.25;98419.88;6100351;23;20246;-92
2023/04/17 01:31:21;;;;;;;8.30;3.57;;;;;;;15.80;73.83;98422.28;6100631;23;20155;-92
2023/04/17 01:33:47;;;;;;;16.40;5.13;;;;;;;15.43;75.52;98419.22;6100187;23;20493;-92
2023/04/17 01:36:14;;;;;;;9.80;4.50;;;;;;;15.71;74.54;98391.34;6126140;23;20155;-92
2023/04/17 01:38:39;;;;;;;16.00;3.67;;;;;;;15.83;73.84;98363.84;6101616;23;20167;-95
2023/04/17 01:41:12;;;;;;;10.03;4.17;;;;;;;15.80;73.91;98351.75;6101595;23;20173;-95
2023/04/17 01:43:42;;;;;;;11.47;4.47;;;;;;;15.83;74.26;98354.13;6102705;23;20144;-94
2023/04/17 01:46:10;;;;;;;9.70;4.33;;;;;;;15.79;74.85;98352.72;6103043;23;20575;-94
2023/04/17 01:48:38;;;;;;;10.17;3.90;;;;;;;15.77;75.74;98356.47;6102676;23;20209;-95
2023/04/17 01:51:04;;;;;;;12.20;5.13;;;;;;;15.78;75.84;98352.84;6124037;23;20174;-95
2023/04/17 01:53:31;;;;;;;11.73;4.57;;;;;;;15.57;77.48;98346.75;6127176;23;20167;-95
2023/04/17 01:56:08;;;;;;;9.57;5.37;;;;;;;15.66;77.17;98301.91;6127773;23;20165;-96
2023/04/17 01:59:18;;;;;;;10.90;4.43;;;;;;;15.63;77.24;98296.88;6128501;23;20175;-96
2023/04/17 02:04:59;;;;;;;11.77;4.43;;;;;;;14.99;80.77;98329.69;6112733;23;20170;-94
2023/04/17 02:07:24;;;;;;;10.47;3.97;;;;;;;15.03;81.34;98331.94;6128097;23;20478;-95
2023/04/17 02:09:51;;;;;;;10.70;4.17;;;;;;;15.16;80.78;98323.81;6126843;23;20194;-94
2023/04/17 02:12:18;;;;;;;10.03;4.57;;;;;;;15.38;80.49;98324.50;6126678;23;20575;-93
2023/04/17 02:14:43;;;;;;;9.50;3.53;;;;;;;15.42;79.84;98316.34;6126563;23;20476;-91
2023/04/17 02:17:10;;;;;;;10.57;4.77;;;;;;;15.07;81.73;98324.59;6128113;23;20180;-93
2023/04/17 02:19:35;;;;;;;7.87;3.77;;;;;;;15.14;81.69;98326.59;6126561;23;20479;-93
2023/04/17 02:22:01;;;;;;;8.03;3.40;;;;;;;15.32;81.13;98346.19;6127965;23;20161;-93
2023/04/17 02:24:27;;;;;;;7.70;4.20;;;;;;;15.41;80.73;98343.72;6126493;23;20156;-92
2023/04/17 02:26:53;;;;;;;8.20;4.40;;;;;;;15.46;80.32;98347.66;6126135;23;20159;-92
2023/04/17 02:29:19;;;;;;;15.23;5.83;;;;;;;15.57;79.99;98341.47;6127376;23;20175;-92
2023/04/17 02:31:45;;;;;;;14.57;6.90;;;;;;;15.66;79.79;98333.63;6126308;23;20564;-92
2023/04/17 02:34:10;;;;;;;7.90;4.50;;;;;;;15.78;79.26;98329.06;6126639;23;20242;-92
2023/04/17 02:36:37;;;;;;;7.20;3.57;;;;;;;15.87;78.72;98320.34;6126383;23;20190;-92
2023/04/17 02:39:03;;;;;;;8.20;4.87;;;;;;;15.76;77.84;98310.72;6127407;23;20552;-92
2023/04/17 02:41:29;;;;;;;11.13;4.97;;;;;;;15.85;77.85;98307.25;6127871;23;20159;-92
2023/04/17 02:43:56;;;;;;;6.70;4.00;;;;;;;15.96;76.43;98316.88;6127207;23;20471;-93
2023/04/17 02:46:23;;;;;;;6.73;3.90;;;;;;;15.98;75.85;98318.44;6127674;23;20157;-92
2023/04/17 02:48:49;;;;;;;9.50;4.50;;;;;;;15.82;76.53;98304.06;6126293;23;20187;-92
2023/04/17 02:51:15;;;;;;;11.90;5.47;;;;;;;15.71;77.18;98302.34;6127773;23;20258;-93
2023/04/17 02:53:41;;;;;;;9.80;4.40;;;;;;;15.73;77.32;98310.13;6101608;23;20174;-92
2023/04/17 02:56:07;;;;;;;9.13;5.00;;;;;;;15.67;77.24;98326.53;6127102;23;20479;-92
2023/04/17 02:58:33;;;;;;;11.37;5.60;;;;;;;15.35;79.08;98327.44;6101573;23;20185;-92
2023/04/17 03:01:02;;;;;;;10.10;5.70;;;;;;;15.48;78.35;98326.41;6101623;23;20577;-92
2023/04/17 03:03:29;;;;;;;10.23;5.47;;;;;;;15.55;77.62;98333.69;6101751;23;20158;-92
2023/04/17 03:05:56;;;;;;;13.20;6.23;;;;;;;15.58;77.46;98328.16;6127455;23;20155;-92
2023/04/17 03:08:23;;;;;;;10.73;6.20;;;;;;;15.64;77.25;98326.78;6126962;23;20601;-92
2023/04/17 03:10:50;;;;;;;11.90;5.97;;;;;;;15.64;76.69;98322.34;6101896;23;20159;-92
2023/04/17 03:13:15;;;;;;;9.87;5.27;;;;;;;15.69;76.69;98319.31;6101366;23;20167;-92
2023/04/17 03:15:42;;;;;;;9.03;5.53;;;;;;;15.67;76.39;98323.88;6127154;23;20585;-92
2023/04/17 03:18:07;;;;;;;10.17;4.80;;;;;;;15.71;76.62;98334.06;6101365;23;20158;-93
2023/04/17 03:20:34;;;;;;;12.80;5.37;;;;;;;15.73;76.75;98334.75;6101402;23;20189;-92
2023/04/17 03:22:59;;;;;;;12.43;4.73;;;;;;;15.76;76.43;98328.38;6101376;23;20162;-93
2023/04/17 03:25:26;;;;;;;9.27;5.07;;;;;;;15.78;76.30;98329.06;6101409;23;20472;-92
2023/04/17 03:27:52;;;;;;;11.27;6.03;;;;;;;15.74;76.12;98332.94;6101142;23;20229;-92
2023/04/17 03:30:17;;;;;;;10.93;5.67;;;;;;;15.69;76.04;98340.44;6101208;23;20615;-92
2023/04/17 03:32:42;;;;;;;9.80;5.17;;;;;;;15.68;76.12;98346.69;6102264;23;20559;-92
2023/04/17 03:35:12;;;;;;;12.13;5.87;;;;;;;15.72;76.03;98341.00;6126820;23;20159;-91
2023/04/17 03:37:37;;;;;;;10.97;5.53;;;;;;;15.75;76.44;98335.44;6101248;23;20251;-92
2023/04/17 03:40:05;;;;;;;9.43;4.57;;;;;;;15.84;75.87;98328.53;6101457;23;20230;-91
2023/04/17 03:42:31;;;;;;;9.13;4.63;;;;;;;15.79;75.92;98333.38;6101048;23;20247;-92
2023/04/17 03:44:58;;;;;;;9.07;5.40;;;;;;;15.76;76.00;98326.56;6126766;23;20151;-91
2023/04/17 03:47:25;;;;;;;8.80;4.63;;;;;;;15.75;76.35;98330.16;6126676;23;20251;-93
2023/04/17 03:49:50;;;;;;;7.33;4.20;;;;;;;15.77;76.38;98330.03;6111679;23;20205;-92
2023/04/17 03:52:16;;;;;;;10.57;5.13;;;;;;;15.79;76.40;98338.66;6130164;23;20151;-92
2023/04/17 03:54:41;;;;;;;8.47;3.87;;;;;;;15.80;76.48;98343.00;6156044;23;20165;-91
2023/04/17 03:57:08;;;;;;;8.90;5.00;;;;;;;15.74;76.07;98365.50;6130535;23;20249;-93
2023/04/17 03:59:33;;;;;;;8.57;4.77;;;;;;;15.62;76.55;98368.31;6130416;23;20155;-93
2023/04/17 04:02:00;;;;;;;12.00;4.27;;;;;;;15.63;76.63;98362.09;6156338;23;20154;-93
2023/04/17 04:04:25;;;;;;;7.47;4.10;;;;;;;15.70;76.62;98360.59;6130298;23;20232;-94
2023/04/17 04:06:56;;;;;;;9.13;5.13;;;;;;;15.77;76.29;98349.38;6130972;23;20543;-93
2023/04/17 04:09:23;;;;;;;12.33;4.97;;;;;;;15.84;75.83;98347.88;6130929;23;20192;-93
2023/04/17 04:11:50;;;;;;;10.87;4.37;;;;;;;15.88;75.93;98343.16;6130428;23;20154;-91
2023/04/17 04:14:17;;;;;;;8.20;4.07;;;;;;;15.92;75.68;98350.69;6129911;23;20180;-93
2023/04/17 04:16:44;;;;;;;6.53;3.03;;;;;;;15.94;75.48;98339.97;6130050;23;20185;-94
2023/04/17 04:19:10;;;;;;;8.73;3.70;;;;;;;15.91;75.08;98337.59;6155834;23;20301;-93
2023/04/17 04:21:37;;;;;;;7.77;3.57;;;;;;;15.91;74.65;98340.25;6130216;23;20173;-94
2023/04/17 04:24:03;;;;;;;7.93;3.30;;;;;;;15.92;74.56;98345.41;6129843;23;20158;-94
2023/04/17 04:26:30;;;;;;;6.83;3.73;;;;;;;15.96;74.15;98349.44;6130503;23;20168;-93
2023/04/17 04:28:58;;;;;;;7.73;4.13;;;;;;;15.98;74.10;98349.34;6130304;23;20182;-93
2023/04/17 04:31:28;;;;;;;9.67;3.57;;;;;;;15.92;74.28;98349.84;6130397;23;20190;-93
2023/04/17 04:33:58;;;;;;;9.63;4.30;;;;;;;15.83;74.77;98361.19;6155690;23;20155;-93
2023/04/17 04:36:24;;;;;;;10.43;3.97;;;;;;;15.82;74.83;98356.91;6154704;23;20155;-93
2023/04/17 04:38:50;;;;;;;11.23;4.83;;;;;;;15.84;74.69;98365.53;6156035;23;20449;-92
2023/04/17 04:41:16;;;;;;;7.73;3.77;;;;;;;15.85;74.08;98354.81;6130054;23;20169;-92
2023/04/17 04:43:45;;;;;;;7.43;4.43;;;;;;;15.93;74.17;98352.34;6130765;23;20158;-92
2023/04/17 04:46:11;;;;;;;8.30;4.10;;;;;;;15.92;74.41;98353.34;6155688;23;20151;-92
2023/04/17 04:48:36;;;;;;;10.40;4.57;;;;;;;15.93;74.80;98357.63;6155525;23;20249;-93
2023/04/17 04:51:01;;;;;;;6.37;3.60;;;;;;;15.99;74.62;98369.50;6130671;23;20583;-92
2023/04/17 04:53:27;;;;;;;8.20;4.07;;;;;;;15.91;74.86;98356.94;6126185;23;20654;-93
2023/04/17 04:55:53;;;;;;;10.47;4.83;;;;;;;15.93;74.90;98364.75;6100845;23;20156;-92
2023/04/17 04:58:18;;;;;;;12.23;5.33;;;;;;;15.97;74.96;98366.16;6100884;23;20151;-95
2023/04/17 05:00:44;;;;;;;7.80;4.10;;;;;;;16.04;74.30;98369.94;6100816;23;20169;-96
2023/04/17 05:03:09;;;;;;;8.27;3.50;;;;;;;15.96;74.40;98378.53;6101275;23;20230;-95
2023/04/17 05:05:36;;;;;;;6.63;3.53;;;;;;;15.70;74.69;98369.34;6102031;23;20167;-95
2023/04/17 05:08:07;;;;;;;15.03;3.83;;;;;;;15.73;74.07;98357.69;6101061;23;20159;-94
2023/04/17 05:10:44;;;;;;;6.87;3.87;;;;;;;15.79;73.37;98360.66;6101549;23;20155;-95
2023/04/17 05:13:10;;;;;;;13.33;4.13;;;;;;;15.78;72.96;98369.53;6101739;23;20159;-95
2023/04/17 05:15:36;;;;;;;9.70;3.97;;;;;;;15.73;73.23;98378.81;6100103;23;20648;-96
2023/04/17 05:18:01;;;;;;;8.70;3.37;;;;;;;15.74;73.38;98383.16;6102540;23;20169;-95
2023/04/17 05:20:27;;;;;;;8.37;3.70;;;;;;;15.77;73.69;98385.53;6103147;23;20169;-95
2023/04/17 05:22:52;;;;;;;11.37;5.23;;;;;;;15.78;74.12;98409.16;6102355;23;20187;-95
2023/04/17 05:25:21;;;;;;;9.57;3.53;;;;;;;15.87;73.20;98397.84;6102836;23;20241;-95
2023/04/17 05:27:46;;;;;;;29.27;13.63;;;;;;;15.86;73.45;98395.31;6102407;23;20169;-92
2023/04/17 05:30:13;;;;;;;13.10;5.40;;;;;;;15.63;75.41;98399.06;6102218;23;20186;-93
2023/04/17 05:32:38;;;;;;;11.73;4.90;;;;;;;15.33;77.46;98408.56;6102640;23;20167;-95
2023/04/17 05:35:05;;;;;;;8.83;4.30;;;;;;;15.31;78.45;98389.38;6127677;23;20154;-93
2023/04/17 05:37:42;;;;;;;10.63;5.13;;;;;;;15.39;78.70;98389.56;6127885;23;20159;-95
2023/04/17 05:40:08;;;;;;;11.27;5.27;;;;;;;15.37;79.38;98386.22;6102315;23;20628;-92
2023/04/17 05:42:34;;;;;;;10.80;5.27;;;;;;;15.49;79.71;98387.03;6102190;23;20158;-93
2023/04/17 05:44:59;;;;;;;13.73;6.50;;;;;;;15.51;80.05;98386.91;6102300;23;20581;-94
2023/04/17 05:47:25;;;;;;;13.77;6.47;;;;;;;15.47;80.47;98393.41;6102605;23;20585;-93
2023/04/17 05:49:56;;;;;;;9.27;4.87;;;;;;;15.43;80.69;98402.53;6108043;23;20199;-96
2023/04/17 05:52:21;;;;;;;12.30;5.80;;;;;;;15.43;81.02;98407.81;6126576;23;20233;-93
2023/04/17 05:54:47;;;;;;;13.03;5.83;;;;;;;15.32;81.48;98422.75;6126704;23;20571;-94
2023/04/17 06:01:52;;;;;;;;;;;;;;;;;;;;;
2023/04/17 06:04:28;;;;;;;13.73;5.90;;;;;;;15.55;80.13;98406.81;6041683;23;20239;-96
2023/04/17 06:06:53;;;;;;;10.60;5.17;;;;;;;15.54;80.22;98407.78;6055056;23;20161;-95
2023/04/17 06:09:20;;;;;;;14.73;6.17;;;;;;;15.47;81.00;98406.59;6123083;23;20611;-94
2023/04/17 06:11:46;;;;;;;10.70;5.20;;;;;;;15.50;81.56;98409.00;6102382;23;20466;-93
2023/04/17 06:14:16;;;;;;;10.93;5.30;;;;;;;15.59;81.17;98403.75;6126256;23;20202;-94
2023/04/17 06:16:43;;;;;;;13.30;5.73;;;;;;;15.68;80.37;98396.88;6128279;23;20155;-95
2023/04/17 06:19:10;;;;;;;9.67;5.07;;;;;;;15.68;80.36;98396.88;6126249;23;20154;-95
2023/04/17 06:21:39;;;;;;;19.17;7.70;;;;;;;15.67;80.53;98408.44;6126922;23;20158;-94
2023/04/17 06:24:06;;;;;;;18.13;7.50;;;;;;;15.64;81.02;98424.53;6126618;23;20642;-93
2023/04/17 06:26:33;;;;;;;18.50;8.00;;;;;;;15.45;81.81;98437.56;6127361;23;20154;-94
2023/04/17 06:29:00;;;;;;;20.07;8.43;;;;;;;15.53;81.69;98451.00;6126055;23;20181;-94
2023/04/17 06:31:26;;;;;;;17.87;7.03;;;;;;;15.62;81.41;98451.06;6127250;23;20155;-92
2023/04/17 06:34:03;;;;;;;15.47;7.67;;;;;;;15.67;81.39;98459.44;6126709;23;20162;-94
2023/04/17 06:36:30;;;;;;;12.53;6.70;;;;;;;15.68;81.42;98463.75;6125567;23;20158;-93
2023/04/17 06:38:57;;;;;;;14.83;6.70;;;;;;;15.70;81.46;98463.63;6126213;23;20545;-93
2023/04/17 06:41:23;;;;;;;20.67;6.37;;;;;;;15.79;81.04;98452.28;6126273;23;20306;-93
2023/04/17 06:43:51;;;;;;;13.57;6.40;;;;;;;15.90;80.15;98441.66;6126305;23;20198;-94
2023/04/17 06:46:16;;;;;;;15.20;8.43;;;;;;;15.93;79.90;98449.34;6126446;23;20169;-93
2023/04/17 06:48:42;;;;;;;19.63;8.17;;;;;;;15.96;79.63;98447.25;6126131;23;20184;-93
2023/04/17 06:51:09;;;;;;;26.83;10.77;;;;;;;15.99;79.53;98451.44;6125510;23;20171;-94
2023/04/17 06:57:10;;;;;;;;;;;;;;;;;;;;;
2023/04/17 06:59:44;;;;;;;14.43;7.53;;;;;;;16.03;78.57;98455.50;6053216;23;20237;-94
2023/04/17 07:02:38;;;;;;;21.10;8.37;;;;;;;16.00;79.09;98450.47;6126781;23;20141;-93
2023/04/17 07:05:41;;;;;;;;;;;;;;;;;;;;;
2023/04/17 07:08:32;;;;;;;18.27;8.03;;;;;;;16.05;79.50;98464.13;6030131;23;20250;-95
2023/04/17 07:11:49;;;;;;;;;;;;;;;;;;;;;
2023/04/17 07:28:16;;;;;;;14.80;7.77;;;;;;;16.21;81.84;98450.44;5893456;24;20247;-95
2023/04/17 07:30:46;;;;;;;16.67;7.70;;;;;;;16.38;82.95;98447.16;6016088;23;20200;-94
2023/04/17 07:33:15;;;;;;;13.07;7.97;;;;;;;16.55;83.36;98447.41;6019421;23;20146;-95
2023/04/17 07:35:42;;;;;;;18.43;9.83;;;;;;;16.56;82.44;98454.34;6021533;23;20181;-90
2023/04/17 07:38:07;;;;;;;17.47;9.43;;;;;;;16.60;83.01;98457.56;6098247;23;20147;-93
2023/04/17 07:40:35;;;;;;;24.17;10.80;;;;;;;16.73;83.50;98450.22;6121471;23;20172;-91
2023/04/17 07:43:00;;;;;;;25.93;12.03;;;;;;;16.87;83.10;98456.97;6099058;23;20164;-94
2023/04/17 07:45:27;;;;;;;27.37;13.83;;;;;;;17.07;82.76;98451.56;6099035;23;20187;-92
2023/04/17 07:47:53;;;;;;;37.43;18.07;;;;;;;17.14;81.51;98451.81;6095819;23;20156;-92
2023/04/17 07:57:14;;;;;;;56.30;21.73;;;;;;;17.45;82.80;98457.84;6097589;23;20154;-89
2023/04/17 07:59:40;;;;;;;59.57;21.50;;;;;;;17.69;81.95;98459.09;6072121;23;20172;-88
2023/04/17 08:02:06;;;;;;;64.13;25.33;;;;;;;17.97;81.42;98460.03;6097279;23;20223;-89
2023/04/17 08:04:32;;;;;;;67.47;26.13;;;;;;;18.12;80.38;98463.06;6097594;23;20148;-89
2023/04/17 08:06:58;;;;;;;92.33;33.63;;;;;;;18.23;79.38;98461.09;6097125;23;20163;-89
2023/04/17 08:09:24;;;;;;;98.53;33.67;;;;;;;18.36;77.51;98461.59;6097080;23;20180;-88
2023/04/17 08:11:50;;;;;;;102.23;31.70;;;;;;;18.43;78.21;98467.13;6097219;23;20544;-88
2023/04/17 08:14:19;;;;;;;103.10;35.17;;;;;;;18.41;77.22;98466.44;6094597;23;20493;-88
2023/04/17 08:16:46;;;;;;;107.53;35.33;;;;;;;18.35;77.22;98465.22;6097221;23;20592;-88
2023/04/17 08:19:12;;;;;;;98.83;35.23;;;;;;;18.61;77.67;98461.91;6071844;23;20148;-88
2023/04/17 08:21:37;;;;;;;72.50;29.43;;;;;;;18.77;75.11;98464.78;6096739;23;20153;-88
2023/04/17 08:24:03;;;;;;;57.33;27.43;;;;;;;18.83;75.27;98459.72;6071853;23;20227;-88
2023/04/17 08:26:29;;;;;;;39.93;21.37;;;;;;;18.74;75.79;98451.78;6071761;23;20233;-89
2023/04/17 08:28:55;;;;;;;34.73;18.73;;;;;;;18.84;75.40;98450.75;6097199;23;20178;-88
2023/04/17 08:31:20;;;;;;;26.90;16.70;;;;;;;18.88;74.36;98446.81;6096793;23;20213;-90
2023/04/17 08:33:46;;;;;;;20.73;11.77;;;;;;;18.67;74.81;98445.41;6070999;23;20162;-89
2023/04/17 08:36:12;;;;;;;17.87;9.70;;;;;;;18.48;75.03;98443.69;6096977;23;20580;-89
2023/04/17 08:38:37;;;;;;;12.93;8.60;;;;;;;18.58;74.99;98439.16;6096876;23;20303;-89
2023/04/17 08:41:07;;;;;;;18.00;8.23;;;;;;;18.84;74.56;98431.34;6096947;23;20152;-88
2023/04/17 08:43:34;;;;;;;12.37;6.53;;;;;;;18.96;73.23;98432.78;6096703;23;20151;-89
2023/04/17 08:46:00;;;;;;;17.30;7.70;;;;;;;19.03;73.99;98436.50;6096753;23;20795;-89
2023/04/17 08:48:26;;;;;;;14.00;7.80;;;;;;;19.06;73.87;98440.69;6096769;23;20151;-89
2023/04/17 08:50:52;;;;;;;15.33;7.47;;;;;;;19.23;73.97;98437.22;6096594;23;20706;-89
2023/04/17 08:53:19;;;;;;;19.03;8.40;;;;;;;19.38;74.04;98439.22;6095953;23;20168;-90
2023/04/17 08:55:46;;;;;;;14.87;7.77;;;;;;;19.53;72.26;98442.16;6094297;23;20152;-90
2023/04/17 08:58:13;;;;;;;13.63;8.43;;;;;;;19.17;72.42;98448.44;6096022;23;20152;-90
2023/04/17 09:00:42;;;;;;;24.17;12.30;;;;;;;19.01;71.77;98452.63;6070946;23;20180;-90
2023/04/17 09:03:11;;;;;;;18.67;10.73;;;;;;;19.15;72.34;98447.78;6096727;23;20149;-90
2023/04/17 09:22:19;;;;;;;23.27;11.60;;;;;;;20.49;65.34;98463.28;5797968;24;20246;-92
2023/04/17 09:24:45;;;;;;;24.43;12.40;;;;;;;20.20;66.40;98457.47;5912878;24;20179;-92
2023/04/17 09:27:58;;;;;;;25.90;13.03;;;;;;;20.29;65.22;98456.53;5957524;24;20163;-92
2023/04/17 09:41:09;;;;;;;18.87;10.70;;;;;;;21.51;59.93;98455.13;5969921;23;20177;-93
2023/04/17 09:50:31;;;;;;;21.93;10.80;;;;;;;21.60;59.03;98433.59;6018854;23;20196;-92
2023/04/17 09:53:08;;;;;;;16.03;9.60;;;;;;;21.80;59.32;98439.44;6037329;23;20158;-93
2023/04/17 09:56:02;;;;;;;;;;;;;;;;;;;;;
2023/04/17 09:59:12;;;;;;;;;;;;;;;;;;;;;
2023/04/17 10:01:52;;;;;;;18.13;8.73;;;;;;;21.43;58.46;98442.63;6125829;23;20568;-93
2023/04/17 10:04:21;;;;;;;15.70;7.73;;;;;;;21.47;59.79;98443.09;6102451;23;20181;-92
2023/04/17 10:06:47;;;;;;;14.43;7.73;;;;;;;21.43;59.29;98446.09;6127534;23;20182;-91
2023/04/17 10:09:13;;;;;;;13.20;6.47;;;;;;;21.21;57.55;98449.41;6127849;23;20175;-92
2023/04/17 10:11:44;;;;;;;16.07;7.10;;;;;;;20.79;59.35;98467.25;6127350;23;20255;-93
2023/04/17 10:14:26;;;;;;;14.03;6.97;;;;;;;20.75;61.55;98468.56;6102945;23;20175;-93
2023/04/17 10:17:23;;;;;;;13.20;5.47;;;;;;;20.68;62.44;98472.84;6128212;23;20211;-92
2023/04/17 10:20:47;;;;;;;12.00;5.70;;;;;;;20.29;64.68;98477.81;6101357;23;20164;-92
2023/04/17 10:27:32;;;;;;;;;;;;;;;;;;;;;
2023/04/17 10:29:59;;;;;;;22.47;7.50;;;;;;;19.42;70.50;98474.28;5954233;24;20266;-89
2023/04/17 10:32:27;;;;;;;7.60;4.00;;;;;;;19.18;69.43;98458.09;6031893;23;20168;-89
2023/04/17 10:35:18;;;;;;;9.57;3.80;;;;;;;19.35;68.48;98451.94;6121851;23;20155;-90
2023/04/17 10:37:52;;;;;;;8.00;3.87;;;;;;;19.36;68.39;98445.66;6101872;23;20156;-90
2023/04/17 10:40:22;;;;;;;8.33;4.77;;;;;;;19.49;68.70;98446.13;6127357;23;20564;-90
2023/04/17 10:43:19;;;;;;;4.60;2.90;;;;;;;19.03;70.35;98450.63;6127675;23;20205;-90
2023/04/17 10:46:11;;;;;;;5.90;2.70;;;;;;;19.07;69.31;98448.53;6126200;23;20218;-89
2023/04/17 10:48:53;;;;;;;3.00;1.50;;;;;;;19.27;69.32;98446.53;6101491;23;20754;-90
2023/04/17 10:51:26;;;;;;;5.17;3.07;;;;;;;19.36;68.85;98457.13;6101544;23;20192;-90
2023/04/17 10:54:05;;;;;;;6.90;3.03;;;;;;;19.58;68.84;98461.97;6098161;23;20201;-90
2023/04/17 10:56:43;;;;;;;8.17;4.23;;;;;;;19.86;69.95;98460.06;6097950;23;20168;-89
2023/04/17 10:59:14;;;;;;;7.40;3.83;;;;;;;20.05;70.48;98470.47;6072627;23;20155;-89
2023/04/17 11:01:48;;;;;;;6.30;3.33;;;;;;;20.15;67.75;98473.88;6097633;23;20580;-88
2023/04/17 11:04:28;;;;;;;5.30;3.00;;;;;;;20.19;67.53;98475.25;6097659;23;20560;-89
2023/04/17 11:06:54;;;;;;;8.77;3.13;;;;;;;20.26;67.07;98474.66;6097831;23;20601;-89
2023/04/17 11:09:22;;;;;;;5.97;2.50;;;;;;;20.34;66.14;98474.69;6097448;23;20604;-88
2023/04/17 11:11:47;;;;;;;3.93;2.07;;;;;;;20.47;67.39;98461.75;6097579;23;20159;-88
2023/04/17 11:14:18;;;;;;;4.17;2.40;;;;;;;20.57;66.47;98457.19;6097542;23;20526;-89
2023/04/17 11:16:46;;;;;;;5.90;2.53;;;;;;;20.61;67.04;98450.53;6097663;23;20172;-90
2023/04/17 11:19:32;;;;;;;4.50;2.20;;;;;;;20.41;65.70;98443.78;6097533;23;20148;-89
2023/04/17 11:22:00;;;;;;;6.73;3.33;;;;;;;20.63;64.31;98432.56;6097240;23;20176;-89
2023/04/17 11:24:27;;;;;;;5.30;2.60;;;;;;;20.88;65.79;98438.81;6071984;23;20171;-90
2023/04/17 11:27:02;;;;;;;6.10;2.20;;;;;;;21.04;64.91;98441.53;6070932;23;20468;-90
2023/04/17 11:29:35;;;;;;;3.13;1.63;;;;;;;21.14;63.91;98437.75;6096787;23;20164;-89
2023/04/17 11:32:00;;;;;;;7.33;2.23;;;;;;;21.24;63.14;98427.75;6096597;23;20141;-90
2023/04/17 11:34:27;;;;;;;6.50;3.03;;;;;;;21.23;62.22;98436.75;6096615;23;20156;-90
2023/04/17 11:37:01;;;;;;;4.77;2.00;;;;;;;21.18;62.63;98433.75;6096805;23;20176;-89
2023/04/17 11:39:32;;;;;;;5.43;1.47;;;;;;;21.10;61.54;98439.06;6072450;23;20175;-90
2023/04/17 11:41:59;;;;;;;3.67;1.70;;;;;;;21.15;61.91;98434.06;6071443;23;20562;-89
2023/04/17 11:44:27;;;;;;;2.83;1.20;;;;;;;21.21;62.11;98437.91;6072304;23;20211;-90
2023/04/17 11:47:05;;;;;;;3.03;1.10;;;;;;;21.20;61.31;98441.59;6047893;23;20160;-89
2023/04/17 11:49:36;;;;;;;3.40;1.27;;;;;;;21.24;60.11;98446.41;6099513;23;20183;-91
2023/04/17 11:52:09;;;;;;;3.70;1.17;;;;;;;21.26;59.90;98446.25;6095621;23;20173;-91
2023/04/17 11:54:42;;;;;;;4.03;1.37;;;;;;;21.21;60.56;98443.25;6096986;23;20137;-91
2023/04/17 11:57:12;;;;;;;3.23;1.30;;;;;;;21.37;59.91;98432.59;6096320;23;20137;-90
2023/04/17 11:59:40;;;;;;;5.10;1.33;;;;;;;21.24;57.40;98441.09;6047909;23;20183;-90
2023/04/17 12:02:11;;;;;;;2.97;1.10;;;;;;;21.18;55.56;98436.41;6071343;23;20171;-91
2023/04/17 12:04:49;;;;;;;2.77;0.97;;;;;;;20.90;58.26;98434.97;6071811;23;20243;-92
2023/04/17 12:07:23;;;;;;;5.13;1.27;;;;;;;21.04;57.96;98433.53;6096854;23;20136;-91
2023/04/17 12:10:11;;;;;;;;;;;;;;;;;;;;;
2023/04/17 12:13:08;;;;;;;1.97;0.77;;;;;;;20.78;57.77;98431.78;6090578;23;20240;-91
2023/04/17 12:15:57;;;;;;;;;;;;;;;;;;;;;
2023/04/17 12:18:23;;;;;;;3.47;1.33;;;;;;;21.17;59.18;98416.06;6097343;23;20220;-90
2023/04/17 12:21:02;;;;;;;2.40;0.90;;;;;;;21.10;57.88;98416.88;6074460;23;20183;-93
2023/04/17 12:23:29;;;;;;;3.70;0.50;;;;;;;21.19;57.30;98414.09;6073019;23;20188;-93
2023/04/17 12:25:54;;;;;;;0.73;0.40;;;;;;;21.26;54.40;98408.91;6097508;23;20171;-93
2023/04/17 12:28:20;;;;;;;1.50;0.57;;;;;;;21.10;50.03;98409.75;6072006;23;20188;-91
2023/04/17 12:30:50;;;;;;;0.47;0.13;;;;;;;21.02;49.11;98407.03;6072216;23;20160;-90
2023/04/17 12:33:17;;;;;;;2.50;0.43;;;;;;;21.25;50.54;98405.41;6096932;23;20161;-91
2023/04/17 12:35:42;;;;;;;1.83;0.70;;;;;;;21.14;52.00;98399.59;6071776;23;20172;-91
2023/04/17 12:38:12;;;;;;;3.53;0.87;;;;;;;21.08;52.25;98403.75;6072214;23;20495;-91
2023/04/17 12:40:44;;;;;;;1.17;0.53;;;;;;;20.83;55.20;98416.13;6097030;23;20148;-91
2023/04/17 12:43:12;;;;;;;2.73;0.50;;;;;;;21.09;53.93;98399.25;6072419;23;20199;-90
2023/04/17 12:45:38;;;;;;;5.77;0.90;;;;;;;21.18;53.60;98407.09;6071965;23;20515;-91
2023/04/17 12:48:07;;;;;;;1.10;0.40;;;;;;;21.16;52.02;98397.59;6096776;23;20231;-90
2023/04/17 12:50:43;;;;;;;0.97;0.30;;;;;;;21.11;52.07;98405.25;6096553;23;20223;-90
2023/04/17 12:53:19;;;;;;;1.20;0.50;;;;;;;21.21;52.88;98390.75;6073754;23;20576;-90
2023/04/17 12:55:45;;;;;;;2.60;0.50;;;;;;;21.24;51.88;98390.44;6096644;23;20171;-90
2023/04/17 12:58:12;;;;;;;5.00;1.40;;;;;;;21.28;51.50;98396.25;6096718;23;20168;-90
2023/04/17 13:00:42;;;;;;;2.67;0.60;;;;;;;21.31;51.34;98395.94;6096824;23;20145;-90
2023/04/17 13:03:10;;;;;;;1.13;0.67;;;;;;;21.32;52.39;98398.44;6096644;23;20236;-90